Time;durP1;ratioP1;P1;durP2;ratioP2;P2;SDS_P1;SDS_P2;PMS_P1;PMS_P2;Temp;Humidity;BMP_temperature;BMP_pressure;BME280_temperature;BME280_humidity;BME280_pressure;Samples;Min_cycle;Max_cycle;Signal;HPM_P1;HPM_P2
2021/09/09 00:01:58;;;;;;;20.85;14.98;;;;;;;;;;4779564;29;20080;-86
2021/09/09 00:04:24;;;;;;;22.33;14.18;;;;;;;;;;4806618;29;20070;-86
2021/09/09 00:06:49;;;;;;;17.92;14.15;;;;;;;;;;4792704;29;20064;-86
2021/09/09 00:09:14;;;;;;;17.73;14.20;;;;;;;;;;4786067;29;20099;-84
2021/09/09 00:11:40;;;;;;;18.73;14.18;;;;;;;;;;4785688;29;20034;-85
2021/09/09 00:14:05;;;;;;;18.00;14.48;;;;;;;;;;4791227;29;20107;-86
2021/09/09 00:16:31;;;;;;;17.58;14.27;;;;;;;;;;4775361;29;20125;-86
2021/09/09 00:18:56;;;;;;;20.00;14.48;;;;;;;;;;4786187;29;20066;-86
2021/09/09 00:21:22;;;;;;;18.90;14.80;;;;;;;;;;4785737;29;20039;-85
2021/09/09 00:23:47;;;;;;;18.38;14.15;;;;;;;;;;4803066;29;20113;-86
2021/09/09 00:26:13;;;;;;;19.10;14.80;;;;;;;;;;4805630;29;20121;-86
2021/09/09 00:28:38;;;;;;;18.67;14.30;;;;;;;;;;4790879;29;20087;-86
2021/09/09 00:31:04;;;;;;;19.42;15.60;;;;;;;;;;4807687;29;20038;-85
2021/09/09 00:33:29;;;;;;;19.50;14.30;;;;;;;;;;4792221;29;20038;-85
2021/09/09 00:35:54;;;;;;;17.50;14.20;;;;;;;;;;4780720;29;20045;-85
2021/09/09 00:38:20;;;;;;;17.80;14.63;;;;;;;;;;4777183;29;20038;-85
2021/09/09 00:40:45;;;;;;;19.30;15.10;;;;;;;;;;4789037;29;20054;-85
2021/09/09 00:43:11;;;;;;;20.02;14.65;;;;;;;;;;4773967;29;20027;-86
2021/09/09 00:45:36;;;;;;;20.10;15.02;;;;;;;;;;4822777;29;20047;-86
2021/09/09 00:48:02;;;;;;;19.10;14.27;;;;;;;;;;4791798;29;20632;-85
2021/09/09 00:50:28;;;;;;;18.98;14.82;;;;;;;;;;4785225;29;20079;-85
2021/09/09 00:52:53;;;;;;;19.27;14.38;;;;;;;;;;4805274;29;20029;-85
2021/09/09 00:55:19;;;;;;;19.98;14.18;;;;;;;;;;4790616;29;20447;-86
2021/09/09 00:57:45;;;;;;;18.25;14.05;;;;;;;;;;4803706;29;20038;-85
2021/09/09 01:00:12;;;;;;;19.83;14.30;;;;;;;;;;4803948;29;20405;-86
2021/09/09 01:02:38;;;;;;;19.15;14.30;;;;;;;;;;4820083;29;20074;-85
2021/09/09 01:05:04;;;;;;;18.70;13.63;;;;;;;;;;4806168;29;20041;-86
2021/09/09 01:07:30;;;;;;;20.63;13.93;;;;;;;;;;4807059;29;20039;-85
2021/09/09 01:09:57;;;;;;;17.30;13.60;;;;;;;;;;4802908;29;20038;-86
2021/09/09 01:12:23;;;;;;;20.10;13.80;;;;;;;;;;4823369;29;20058;-85
2021/09/09 01:14:48;;;;;;;17.85;14.63;;;;;;;;;;4790974;29;20061;-85
2021/09/09 01:17:14;;;;;;;18.35;14.10;;;;;;;;;;4799164;29;20042;-85
2021/09/09 01:19:39;;;;;;;17.85;14.32;;;;;;;;;;4806388;29;20655;-86
2021/09/09 01:22:05;;;;;;;17.35;13.93;;;;;;;;;;4806106;29;20503;-85
2021/09/09 01:24:31;;;;;;;18.25;13.65;;;;;;;;;;4784887;29;20049;-85
2021/09/09 01:27:03;;;;;;;18.60;13.68;;;;;;;;;;4806415;29;20121;-86
2021/09/09 01:29:37;;;;;;;19.75;13.90;;;;;;;;;;4807336;29;20444;-85
2021/09/09 01:32:04;;;;;;;17.75;13.40;;;;;;;;;;4802998;29;20030;-86
2021/09/09 01:34:30;;;;;;;18.05;13.80;;;;;;;;;;4804438;29;20156;-86
2021/09/09 01:36:56;;;;;;;16.92;13.88;;;;;;;;;;4782664;29;20046;-86
2021/09/09 01:39:21;;;;;;;17.15;13.90;;;;;;;;;;4791214;29;20045;-86
2021/09/09 01:41:51;;;;;;;16.92;13.70;;;;;;;;;;4820275;29;20073;-86
2021/09/09 01:44:17;;;;;;;18.92;13.77;;;;;;;;;;4782924;29;20035;-86
2021/09/09 01:46:43;;;;;;;19.30;13.27;;;;;;;;;;4807454;29;20099;-85
2021/09/09 01:49:10;;;;;;;20.95;13.50;;;;;;;;;;4820617;29;20034;-86
2021/09/09 01:51:35;;;;;;;18.95;13.77;;;;;;;;;;4801962;29;20034;-86
2021/09/09 01:54:01;;;;;;;19.95;14.38;;;;;;;;;;4791561;29;20407;-85
2021/09/09 01:56:26;;;;;;;19.42;14.07;;;;;;;;;;4788936;29;20039;-86
2021/09/09 01:58:52;;;;;;;19.55;13.65;;;;;;;;;;4788323;29;20102;-85
2021/09/09 02:01:19;;;;;;;17.45;13.98;;;;;;;;;;4806119;29;20391;-85
2021/09/09 02:03:45;;;;;;;16.60;13.60;;;;;;;;;;4819714;29;20046;-86
2021/09/09 02:06:10;;;;;;;18.52;13.85;;;;;;;;;;4804683;29;20041;-85
2021/09/09 02:08:36;;;;;;;17.55;13.77;;;;;;;;;;4823224;29;20034;-85
2021/09/09 02:11:01;;;;;;;18.83;13.60;;;;;;;;;;4778623;29;20114;-86
2021/09/09 02:13:27;;;;;;;17.63;14.35;;;;;;;;;;4803555;29;20063;-86
2021/09/09 02:15:52;;;;;;;18.17;13.60;;;;;;;;;;4806559;29;20061;-84
2021/09/09 02:18:18;;;;;;;18.58;13.80;;;;;;;;;;4782985;29;20484;-86
2021/09/09 02:20:43;;;;;;;19.33;14.13;;;;;;;;;;4775829;29;20034;-86
2021/09/09 02:23:09;;;;;;;20.77;13.77;;;;;;;;;;4788157;29;20053;-86
2021/09/09 02:25:34;;;;;;;18.40;14.27;;;;;;;;;;4776484;29;20054;-86
2021/09/09 02:27:59;;;;;;;19.02;13.77;;;;;;;;;;4789714;29;20065;-85
2021/09/09 02:30:26;;;;;;;16.45;14.02;;;;;;;;;;4773633;29;20702;-85
2021/09/09 02:32:52;;;;;;;18.58;13.90;;;;;;;;;;4804853;29;20041;-86
2021/09/09 02:35:18;;;;;;;18.10;14.43;;;;;;;;;;4803831;29;20061;-85
2021/09/09 02:37:43;;;;;;;20.40;14.48;;;;;;;;;;4791065;29;20415;-85
2021/09/09 02:40:11;;;;;;;18.80;14.13;;;;;;;;;;4786858;29;20045;-86
2021/09/09 02:42:36;;;;;;;19.95;14.80;;;;;;;;;;4801410;29;20046;-85
2021/09/09 02:45:03;;;;;;;18.10;14.68;;;;;;;;;;4813547;29;20482;-86
2021/09/09 02:47:28;;;;;;;17.58;14.00;;;;;;;;;;4791498;29;20094;-85
2021/09/09 02:49:53;;;;;;;19.38;14.55;;;;;;;;;;4786459;29;20131;-86
2021/09/09 02:52:19;;;;;;;17.15;13.50;;;;;;;;;;4785145;29;20038;-85
2021/09/09 02:54:44;;;;;;;21.00;14.77;;;;;;;;;;4798744;29;20509;-86
2021/09/09 02:57:10;;;;;;;18.38;14.27;;;;;;;;;;4789464;29;20124;-86
2021/09/09 02:59:35;;;;;;;19.17;14.07;;;;;;;;;;4772445;29;20049;-86
2021/09/09 03:02:03;;;;;;;17.85;14.65;;;;;;;;;;4789371;29;20125;-85
2021/09/09 03:04:28;;;;;;;18.70;14.82;;;;;;;;;;4784965;29;20900;-85
2021/09/09 03:06:54;;;;;;;19.20;15.10;;;;;;;;;;4804433;29;20038;-86
2021/09/09 03:09:19;;;;;;;20.85;14.88;;;;;;;;;;4775477;29;20038;-85
2021/09/09 03:11:45;;;;;;;18.92;14.70;;;;;;;;;;4808819;29;20034;-85
2021/09/09 03:14:10;;;;;;;17.92;15.25;;;;;;;;;;4772648;29;20043;-86
2021/09/09 03:16:36;;;;;;;18.42;14.55;;;;;;;;;;4807532;29;20095;-86
2021/09/09 03:19:01;;;;;;;21.42;14.80;;;;;;;;;;4802408;29;20034;-85
2021/09/09 03:21:27;;;;;;;17.33;14.40;;;;;;;;;;4778682;29;20041;-85
2021/09/09 03:23:52;;;;;;;18.27;14.55;;;;;;;;;;4793174;29;20042;-85
2021/09/09 03:26:18;;;;;;;20.25;15.68;;;;;;;;;;4788484;29;20106;-85
2021/09/09 03:28:43;;;;;;;20.25;15.73;;;;;;;;;;4791338;29;20034;-85
2021/09/09 03:31:08;;;;;;;18.58;15.07;;;;;;;;;;4805305;29;20030;-86
2021/09/09 03:33:34;;;;;;;18.90;15.93;;;;;;;;;;4778945;29;20049;-85
2021/09/09 03:35:59;;;;;;;19.83;15.50;;;;;;;;;;4802305;29;20034;-86
2021/09/09 03:38:25;;;;;;;21.33;16.10;;;;;;;;;;4778107;29;20122;-85
2021/09/09 03:40:50;;;;;;;22.05;16.30;;;;;;;;;;4807778;29;20114;-85
2021/09/09 03:43:16;;;;;;;20.98;15.85;;;;;;;;;;4788304;29;20410;-85
2021/09/09 03:45:41;;;;;;;19.95;15.68;;;;;;;;;;4795224;29;20045;-85
2021/09/09 03:48:07;;;;;;;22.25;16.23;;;;;;;;;;4805264;29;20090;-85
2021/09/09 03:50:32;;;;;;;21.02;16.08;;;;;;;;;;4789927;29;20163;-85
2021/09/09 03:52:58;;;;;;;20.98;15.82;;;;;;;;;;4793927;29;20038;-86
2021/09/09 03:55:23;;;;;;;19.48;16.17;;;;;;;;;;4786556;29;20034;-85
2021/09/09 03:57:49;;;;;;;21.42;16.05;;;;;;;;;;4786125;29;20035;-86
2021/09/09 04:00:15;;;;;;;20.42;15.93;;;;;;;;;;4789457;29;20390;-86
2021/09/09 04:02:41;;;;;;;21.05;16.52;;;;;;;;;;4806057;29;20045;-85
2021/09/09 04:05:07;;;;;;;20.90;15.95;;;;;;;;;;4792315;29;20503;-85
2021/09/09 04:07:33;;;;;;;19.92;15.82;;;;;;;;;;4805996;29;20072;-85
2021/09/09 04:09:58;;;;;;;21.27;16.05;;;;;;;;;;4793579;29;20482;-85
2021/09/09 04:12:24;;;;;;;23.17;16.33;;;;;;;;;;4777004;29;20130;-86
2021/09/09 04:14:49;;;;;;;20.63;16.17;;;;;;;;;;4807225;29;20491;-85
2021/09/09 04:17:14;;;;;;;23.90;15.60;;;;;;;;;;4792445;29;20038;-85
2021/09/09 04:19:40;;;;;;;20.45;15.55;;;;;;;;;;4807720;29;20030;-86
2021/09/09 04:22:09;;;;;;;20.27;16.15;;;;;;;;;;4807863;29;20038;-86
2021/09/09 04:24:36;;;;;;;19.83;15.95;;;;;;;;;;4793894;29;21372;-85
2021/09/09 04:27:02;;;;;;;22.83;15.10;;;;;;;;;;4802107;29;20042;-85
2021/09/09 04:29:27;;;;;;;19.92;15.27;;;;;;;;;;4791851;29;20042;-86
2021/09/09 04:31:52;;;;;;;20.15;15.35;;;;;;;;;;4791559;29;20040;-86
2021/09/09 04:34:18;;;;;;;20.75;16.20;;;;;;;;;;4775118;29;20065;-86
2021/09/09 04:36:43;;;;;;;21.05;15.85;;;;;;;;;;4806235;29;20034;-85
2021/09/09 04:39:09;;;;;;;19.13;15.20;;;;;;;;;;4777320;29;20052;-84
2021/09/09 04:41:34;;;;;;;20.48;16.17;;;;;;;;;;4807744;29;20117;-86
2021/09/09 04:44:00;;;;;;;19.23;14.98;;;;;;;;;;4805109;29;20049;-85
2021/09/09 04:46:25;;;;;;;19.48;15.00;;;;;;;;;;4790047;29;20034;-86
2021/09/09 04:48:51;;;;;;;19.17;14.68;;;;;;;;;;4791614;29;20065;-86
2021/09/09 04:51:16;;;;;;;17.35;15.20;;;;;;;;;;4785975;29;20397;-85
2021/09/09 04:53:41;;;;;;;19.35;15.98;;;;;;;;;;4789549;29;20530;-85
2021/09/09 04:56:07;;;;;;;20.67;15.32;;;;;;;;;;4788625;29;20043;-86
2021/09/09 04:58:32;;;;;;;19.48;16.20;;;;;;;;;;4804226;29;20049;-85
2021/09/09 05:00:58;;;;;;;20.05;15.88;;;;;;;;;;4803503;29;20038;-86
2021/09/09 05:03:23;;;;;;;20.98;16.25;;;;;;;;;;4785315;29;20125;-86
2021/09/09 05:05:49;;;;;;;21.38;16.02;;;;;;;;;;4784109;29;20042;-85
2021/09/09 05:08:14;;;;;;;21.60;16.27;;;;;;;;;;4807151;29;20038;-86
2021/09/09 05:10:40;;;;;;;19.77;15.63;;;;;;;;;;4791445;29;20471;-85
2021/09/09 05:13:06;;;;;;;20.42;16.05;;;;;;;;;;4803206;29;20030;-86
2021/09/09 05:15:31;;;;;;;20.60;17.13;;;;;;;;;;4774724;29;20564;-85
2021/09/09 05:17:58;;;;;;;19.38;15.43;;;;;;;;;;4800816;29;20035;-86
2021/09/09 05:20:23;;;;;;;21.00;16.55;;;;;;;;;;4805985;29;20535;-86
2021/09/09 05:22:48;;;;;;;20.33;16.58;;;;;;;;;;4769246;29;20157;-86
2021/09/09 05:25:14;;;;;;;23.23;15.40;;;;;;;;;;4791273;29;20049;-85
2021/09/09 05:27:40;;;;;;;20.20;16.08;;;;;;;;;;4768867;29;20066;-85
2021/09/09 05:30:06;;;;;;;23.98;17.05;;;;;;;;;;4803380;29;20022;-85
2021/09/09 05:32:33;;;;;;;20.10;16.15;;;;;;;;;;4783080;29;20078;-85
2021/09/09 05:34:59;;;;;;;21.85;16.27;;;;;;;;;;4782311;29;20059;-86
2021/09/09 05:37:25;;;;;;;19.52;16.38;;;;;;;;;;4803539;29;20406;-85
2021/09/09 05:39:50;;;;;;;20.17;16.45;;;;;;;;;;4802790;29;20435;-86
2021/09/09 05:42:16;;;;;;;22.42;16.65;;;;;;;;;;4803098;29;20045;-86
2021/09/09 05:44:42;;;;;;;21.23;17.40;;;;;;;;;;4802067;29;20376;-85
2021/09/09 05:47:08;;;;;;;21.45;17.27;;;;;;;;;;4791161;29;20125;-85
2021/09/09 05:49:35;;;;;;;24.27;17.92;;;;;;;;;;4806955;29;20038;-85
2021/09/09 05:52:00;;;;;;;24.17;16.77;;;;;;;;;;4807442;29;20038;-84
2021/09/09 05:54:26;;;;;;;22.20;17.27;;;;;;;;;;4797676;29;20039;-86
2021/09/09 05:56:51;;;;;;;21.63;17.10;;;;;;;;;;4775749;29;20411;-86
2021/09/09 05:59:18;;;;;;;22.33;17.17;;;;;;;;;;4796882;29;20487;-86
2021/09/09 06:01:45;;;;;;;23.27;17.95;;;;;;;;;;4777456;29;20063;-85
2021/09/09 06:04:13;;;;;;;20.33;17.02;;;;;;;;;;4802352;29;20094;-86
2021/09/09 06:06:39;;;;;;;23.63;17.38;;;;;;;;;;4795726;29;20122;-86
2021/09/09 06:09:04;;;;;;;25.40;17.48;;;;;;;;;;4792693;29;20131;-86
2021/09/09 06:11:30;;;;;;;22.15;16.63;;;;;;;;;;4792349;29;20038;-86
2021/09/09 06:13:55;;;;;;;20.65;17.20;;;;;;;;;;4807576;29;20483;-85
2021/09/09 06:16:21;;;;;;;21.48;17.55;;;;;;;;;;4791891;29;20074;-86
2021/09/09 06:18:46;;;;;;;25.58;17.88;;;;;;;;;;4807956;29;20045;-85
2021/09/09 06:21:11;;;;;;;28.05;17.08;;;;;;;;;;4786639;29;20064;-85
2021/09/09 06:23:37;;;;;;;24.08;17.17;;;;;;;;;;4803785;29;20038;-85
2021/09/09 06:26:02;;;;;;;20.92;17.08;;;;;;;;;;4788967;29;20034;-85
2021/09/09 06:28:28;;;;;;;24.05;17.70;;;;;;;;;;4803163;29;20103;-85
2021/09/09 06:30:53;;;;;;;22.50;17.30;;;;;;;;;;4796586;29;20038;-86
2021/09/09 06:33:19;;;;;;;21.98;17.23;;;;;;;;;;4801724;29;20058;-84
2021/09/09 06:35:46;;;;;;;21.67;17.02;;;;;;;;;;4779103;29;20042;-84
2021/09/09 06:38:12;;;;;;;23.58;16.67;;;;;;;;;;4810024;29;20045;-83
2021/09/09 06:40:38;;;;;;;22.00;17.27;;;;;;;;;;4812640;29;20114;-83
2021/09/09 06:43:03;;;;;;;20.50;17.00;;;;;;;;;;4798513;29;20062;-84
2021/09/09 06:45:29;;;;;;;21.23;16.92;;;;;;;;;;4814465;29;20049;-84
2021/09/09 06:47:54;;;;;;;20.13;16.13;;;;;;;;;;4799198;29;20494;-85
2021/09/09 06:50:20;;;;;;;23.13;17.60;;;;;;;;;;4807819;29;20042;-84
2021/09/09 06:52:46;;;;;;;24.25;17.92;;;;;;;;;;4808537;29;20091;-84
2021/09/09 06:55:11;;;;;;;21.25;17.58;;;;;;;;;;4777097;29;20148;-84
2021/09/09 06:57:37;;;;;;;23.23;17.23;;;;;;;;;;4808206;29;20662;-84
2021/09/09 07:00:03;;;;;;;24.23;17.52;;;;;;;;;;4791954;29;20542;-84
2021/09/09 07:02:28;;;;;;;24.55;17.42;;;;;;;;;;4803270;29;20050;-84
2021/09/09 07:04:54;;;;;;;23.50;17.50;;;;;;;;;;4807563;29;20031;-85
2021/09/09 07:07:19;;;;;;;23.10;17.88;;;;;;;;;;4805727;29;20183;-84
2021/09/09 07:09:45;;;;;;;21.40;17.27;;;;;;;;;;4820707;29;20796;-85
2021/09/09 07:12:11;;;;;;;21.70;16.52;;;;;;;;;;4802411;29;20057;-84
2021/09/09 07:14:36;;;;;;;22.67;17.13;;;;;;;;;;4796381;29;20533;-83
2021/09/09 07:17:02;;;;;;;22.20;16.92;;;;;;;;;;4803706;29;20039;-84
2021/09/09 07:19:27;;;;;;;22.60;17.33;;;;;;;;;;4789393;29;20031;-84
2021/09/09 07:21:53;;;;;;;21.15;16.83;;;;;;;;;;4798446;29;20118;-85
2021/09/09 07:24:19;;;;;;;23.88;17.55;;;;;;;;;;4801085;29;20062;-85
2021/09/09 07:26:46;;;;;;;22.02;17.30;;;;;;;;;;4805837;29;20035;-84
2021/09/09 07:29:14;;;;;;;22.75;17.15;;;;;;;;;;4787766;29;20461;-84
2021/09/09 07:31:41;;;;;;;21.25;17.00;;;;;;;;;;4785593;29;20027;-84
2021/09/09 07:34:07;;;;;;;21.40;17.10;;;;;;;;;;4808758;29;20065;-84
2021/09/09 07:36:35;;;;;;;24.40;18.27;;;;;;;;;;4806133;29;20050;-85
2021/09/09 07:39:01;;;;;;;20.08;17.00;;;;;;;;;;4808892;29;20087;-85
2021/09/09 07:41:27;;;;;;;21.95;18.10;;;;;;;;;;4800557;29;20046;-85
2021/09/09 07:43:52;;;;;;;22.65;17.88;;;;;;;;;;4793700;29;20026;-85
2021/09/09 07:46:18;;;;;;;23.13;18.45;;;;;;;;;;4801743;29;20023;-85
2021/09/09 07:48:43;;;;;;;25.00;17.77;;;;;;;;;;4790369;29;20718;-85
2021/09/09 07:51:09;;;;;;;26.35;17.92;;;;;;;;;;4796535;29;20059;-84
2021/09/09 07:53:34;;;;;;;24.77;17.77;;;;;;;;;;4810689;29;20100;-84
2021/09/09 07:56:00;;;;;;;22.00;16.67;;;;;;;;;;4809915;29;20034;-84
2021/09/09 07:58:25;;;;;;;23.30;17.42;;;;;;;;;;4819571;29;20079;-84
2021/09/09 08:00:51;;;;;;;23.08;16.63;;;;;;;;;;4821877;29;20357;-85
2021/09/09 08:03:16;;;;;;;19.35;16.40;;;;;;;;;;4808775;29;20113;-84
2021/09/09 08:05:42;;;;;;;20.77;17.25;;;;;;;;;;4810733;29;20034;-83
2021/09/09 08:08:07;;;;;;;23.40;17.58;;;;;;;;;;4806804;29;20038;-85
2021/09/09 08:10:33;;;;;;;20.08;16.60;;;;;;;;;;4789696;29;20045;-85
2021/09/09 08:12:59;;;;;;;21.55;17.27;;;;;;;;;;4825869;29;20022;-83
2021/09/09 08:15:25;;;;;;;20.70;17.13;;;;;;;;;;4796081;29;20403;-83
2021/09/09 08:17:50;;;;;;;23.10;16.52;;;;;;;;;;4815482;29;20050;-84
2021/09/09 08:20:16;;;;;;;19.33;16.30;;;;;;;;;;4799053;29;20425;-84
2021/09/09 08:22:42;;;;;;;20.27;16.30;;;;;;;;;;4810339;29;20031;-84
2021/09/09 08:25:09;;;;;;;22.80;16.63;;;;;;;;;;4820646;29;20038;-84
2021/09/09 08:27:35;;;;;;;23.23;17.15;;;;;;;;;;4790012;29;20042;-84
2021/09/09 08:30:01;;;;;;;19.33;16.98;;;;;;;;;;4787661;29;20035;-84
2021/09/09 08:32:27;;;;;;;21.40;17.83;;;;;;;;;;4817159;29;20054;-84
2021/09/09 08:34:54;;;;;;;20.73;16.73;;;;;;;;;;4796375;29;20054;-85
2021/09/09 08:37:19;;;;;;;20.77;16.67;;;;;;;;;;4806623;29;20413;-85
2021/09/09 08:39:45;;;;;;;22.63;17.65;;;;;;;;;;4802983;29;20035;-85
2021/09/09 08:42:14;;;;;;;23.83;16.85;;;;;;;;;;4786853;29;20060;-84
2021/09/09 08:44:40;;;;;;;19.60;16.33;;;;;;;;;;4791254;29;20038;-85
2021/09/09 08:47:08;;;;;;;24.92;16.90;;;;;;;;;;4823460;29;20482;-84
2021/09/09 08:49:34;;;;;;;20.48;16.25;;;;;;;;;;4809415;29;20044;-85
2021/09/09 08:51:59;;;;;;;19.65;16.45;;;;;;;;;;4808639;29;20504;-85
2021/09/09 08:54:25;;;;;;;28.33;18.08;;;;;;;;;;4804793;29;20038;-84
2021/09/09 08:56:51;;;;;;;20.05;16.67;;;;;;;;;;4788283;29;20406;-85
2021/09/09 08:59:17;;;;;;;22.10;17.85;;;;;;;;;;4791268;29;20041;-86
2021/09/09 09:02:03;;;;;;;24.10;17.13;;;;;;;;;;4792562;29;20380;-86
2021/09/09 09:04:29;;;;;;;21.40;16.42;;;;;;;;;;4810986;29;20424;-85
2021/09/09 09:06:55;;;;;;;20.23;16.38;;;;;;;;;;4816413;29;20041;-84
2021/09/09 09:09:23;;;;;;;20.60;15.60;;;;;;;;;;4805209;29;20034;-84
2021/09/09 09:11:52;;;;;;;19.50;16.02;;;;;;;;;;4802694;29;20042;-84
2021/09/09 09:14:25;;;;;;;20.00;16.17;;;;;;;;;;4793793;29;20038;-84
2021/09/09 09:16:51;;;;;;;;;;;;;;;;;;4821400;29;20819;-83
2021/09/09 09:19:24;;;;;;;22.73;15.80;;;;;;;;;;4801627;29;19931;-83
2021/09/09 09:22:01;;;;;;;;;;;;;;;;;;4806400;29;20034;-84
2021/09/09 09:24:32;;;;;;;21.45;15.07;;;;;;;;;;4823988;29;19916;-83
2021/09/09 09:27:13;;;;;;;22.23;16.67;;;;;;;;;;4803903;29;20041;-83
2021/09/09 09:29:41;;;;;;;23.77;15.38;;;;;;;;;;4809378;29;20030;-83
2021/09/09 09:32:08;;;;;;;22.55;15.50;;;;;;;;;;4802956;29;20034;-84
2021/09/09 09:34:33;;;;;;;19.52;14.85;;;;;;;;;;4807753;29;20150;-83
2021/09/09 09:36:59;;;;;;;20.35;15.95;;;;;;;;;;4776713;29;20939;-83
2021/09/09 09:39:25;;;;;;;19.88;15.75;;;;;;;;;;4812946;29;20049;-84
2021/09/09 09:41:54;;;;;;;17.83;15.38;;;;;;;;;;4781114;29;20116;-84
2021/09/09 09:44:31;;;;;;;18.65;14.55;;;;;;;;;;4808779;29;20031;-84
2021/09/09 09:47:10;;;;;;;20.90;13.65;;;;;;;;;;4808991;29;20940;-83
2021/09/09 09:49:39;;;;;;;18.17;13.55;;;;;;;;;;4807610;29;20093;-84
2021/09/09 09:52:06;;;;;;;20.63;14.68;;;;;;;;;;4820195;29;20091;-83
2021/09/09 09:54:33;;;;;;;20.25;14.30;;;;;;;;;;4804325;29;20486;-84
2021/09/09 09:57:00;;;;;;;18.10;14.07;;;;;;;;;;4807790;29;20042;-83
2021/09/09 09:59:25;;;;;;;19.35;14.30;;;;;;;;;;4822039;29;20037;-85
2021/09/09 10:01:51;;;;;;;16.98;14.63;;;;;;;;;;4823989;29;20050;-83
2021/09/09 10:04:18;;;;;;;18.02;13.85;;;;;;;;;;4813275;29;20068;-83
2021/09/09 10:06:46;;;;;;;19.20;14.82;;;;;;;;;;4824727;29;20448;-83
2021/09/09 10:09:13;;;;;;;18.25;14.45;;;;;;;;;;4808423;29;20451;-84
2021/09/09 10:11:39;;;;;;;17.00;13.63;;;;;;;;;;4806561;29;20054;-83
2021/09/09 10:14:06;;;;;;;17.52;13.52;;;;;;;;;;4809256;29;20077;-83
2021/09/09 10:16:38;;;;;;;14.85;12.80;;;;;;;;;;4787178;29;20038;-84
2021/09/09 10:19:04;;;;;;;;;;;;;;;;;;4808642;29;20038;-84
2021/09/09 10:21:47;;;;;;;18.95;13.40;;;;;;;;;;4810555;29;19984;-83
2021/09/09 10:24:19;;;;;;;17.52;13.02;;;;;;;;;;4809684;29;20046;-83
2021/09/09 10:26:48;;;;;;;19.15;13.40;;;;;;;;;;4823324;29;20424;-83
2021/09/09 10:29:46;;;;;;;16.92;13.43;;;;;;;;;;4810298;29;20027;-83
2021/09/09 10:32:47;;;;;;;24.20;13.85;;;;;;;;;;4767597;29;20050;-83
2021/09/09 10:37:48;;;;;;;19.60;13.85;;;;;;;;;;4824939;29;20027;-84
2021/09/09 10:40:31;;;;;;;21.67;15.60;;;;;;;;;;4805798;29;20121;-84
2021/09/09 10:43:37;;;;;;;18.15;14.40;;;;;;;;;;4804856;29;20537;-84
2021/09/09 10:46:05;;;;;;;17.80;14.18;;;;;;;;;;4808030;29;20117;-84
2021/09/09 10:48:31;;;;;;;18.48;15.07;;;;;;;;;;4826185;29;20023;-84
2021/09/09 10:51:14;;;;;;;21.17;15.75;;;;;;;;;;4809574;29;20037;-84
2021/09/09 10:53:40;;;;;;;19.00;15.48;;;;;;;;;;4826514;29;20508;-84
2021/09/09 10:56:11;;;;;;;19.17;15.82;;;;;;;;;;4805009;29;20031;-84
2021/09/09 10:58:41;;;;;;;21.55;17.83;;;;;;;;;;4798474;29;20256;-83
2021/09/09 11:01:08;;;;;;;23.90;15.73;;;;;;;;;;4802989;29;20035;-83
2021/09/09 11:03:47;;;;;;;21.42;16.92;;;;;;;;;;4793619;29;20038;-84
2021/09/09 11:06:24;;;;;;;20.48;16.30;;;;;;;;;;4786071;29;20531;-83
2021/09/09 11:08:58;;;;;;;22.52;17.25;;;;;;;;;;4809179;29;20026;-83
2021/09/09 11:11:29;;;;;;;24.30;16.58;;;;;;;;;;4827421;29;20033;-84
2021/09/09 11:14:02;;;;;;;21.83;15.50;;;;;;;;;;4792999;29;20491;-83
2021/09/09 11:16:30;;;;;;;22.20;16.63;;;;;;;;;;4826565;29;20042;-83
2021/09/09 11:18:57;;;;;;;28.42;18.90;;;;;;;;;;4793326;29;20033;-83
2021/09/09 11:21:25;;;;;;;20.35;16.90;;;;;;;;;;4809830;29;20031;-83
2021/09/09 11:24:01;;;;;;;19.73;15.70;;;;;;;;;;4814468;29;20541;-83
2021/09/09 11:26:27;;;;;;;19.33;14.93;;;;;;;;;;4810711;29;20064;-85
2021/09/09 11:28:54;;;;;;;20.75;16.65;;;;;;;;;;4810028;29;20419;-83
2021/09/09 11:31:25;;;;;;;21.08;17.15;;;;;;;;;;4810517;29;20030;-84
2021/09/09 11:33:55;;;;;;;24.58;18.65;;;;;;;;;;4805979;29;20145;-85
2021/09/09 11:36:23;;;;;;;20.20;17.23;;;;;;;;;;4800488;29;20041;-84
2021/09/09 11:38:50;;;;;;;21.65;15.63;;;;;;;;;;4806323;29;20035;-84
2021/09/09 11:41:19;;;;;;;23.02;18.17;;;;;;;;;;4793849;29;20065;-85
2021/09/09 11:43:56;;;;;;;24.10;16.40;;;;;;;;;;4805507;29;20090;-85
2021/09/09 11:46:28;;;;;;;20.33;15.40;;;;;;;;;;4820483;29;20026;-85
2021/09/09 11:48:58;;;;;;;19.17;14.50;;;;;;;;;;4796569;29;20095;-83
2021/09/09 11:51:36;;;;;;;21.05;15.13;;;;;;;;;;4807838;29;20382;-84
2021/09/09 11:54:07;;;;;;;18.25;13.90;;;;;;;;;;4826960;29;20087;-84
2021/09/09 11:56:32;;;;;;;17.35;12.45;;;;;;;;;;4802302;29;20022;-84
2021/09/09 11:59:01;;;;;;;18.38;13.48;;;;;;;;;;4810798;29;20042;-84
2021/09/09 12:01:32;;;;;;;18.42;14.75;;;;;;;;;;4805574;29;20046;-84
2021/09/09 12:04:00;;;;;;;20.67;16.23;;;;;;;;;;4818420;29;20045;-84
2021/09/09 12:06:26;;;;;;;18.42;15.23;;;;;;;;;;4814693;29;20027;-84
2021/09/09 12:08:51;;;;;;;19.63;14.27;;;;;;;;;;4787809;29;20578;-84
2021/09/09 12:11:17;;;;;;;19.75;14.18;;;;;;;;;;4809750;29;20042;-83
2021/09/09 12:13:46;;;;;;;17.80;14.05;;;;;;;;;;4822440;29;20078;-83
2021/09/09 12:16:18;;;;;;;16.48;13.82;;;;;;;;;;4810680;29;20113;-84
2021/09/09 12:18:46;;;;;;;22.25;15.00;;;;;;;;;;4806114;29;20034;-84
2021/09/09 12:21:15;;;;;;;16.83;13.40;;;;;;;;;;4818376;29;20038;-83
2021/09/09 12:24:04;;;;;;;17.15;14.15;;;;;;;;;;4803998;29;20058;-83
2021/09/09 12:26:30;;;;;;;20.48;14.48;;;;;;;;;;4798964;29;20095;-83
2021/09/09 12:28:56;;;;;;;18.08;15.23;;;;;;;;;;4798268;29;20052;-83
2021/09/09 12:31:33;;;;;;;19.05;14.93;;;;;;;;;;4807419;29;20305;-83
2021/09/09 12:33:59;;;;;;;17.83;13.48;;;;;;;;;;4789309;29;20054;-84
2021/09/09 12:36:24;;;;;;;19.67;14.40;;;;;;;;;;4821853;29;20037;-83
2021/09/09 12:38:50;;;;;;;21.35;15.43;;;;;;;;;;4827099;29;20101;-83
2021/09/09 12:41:18;;;;;;;20.35;14.00;;;;;;;;;;4809408;29;20034;-84
2021/09/09 12:43:47;;;;;;;17.38;13.25;;;;;;;;;;4803657;29;20031;-85
2021/09/09 12:46:28;;;;;;;17.70;13.77;;;;;;;;;;4809005;29;20501;-85
2021/09/09 12:49:07;;;;;;;19.05;14.38;;;;;;;;;;4799755;29;20517;-84
2021/09/09 12:51:41;;;;;;;18.50;13.57;;;;;;;;;;4796201;29;20666;-84
2021/09/09 12:54:08;;;;;;;18.67;12.68;;;;;;;;;;4806786;29;20034;-83
2021/09/09 12:56:34;;;;;;;17.63;13.50;;;;;;;;;;4786069;29;20034;-83
2021/09/09 12:58:59;;;;;;;16.27;14.13;;;;;;;;;;4793157;29;20039;-83
2021/09/09 13:01:26;;;;;;;15.88;12.98;;;;;;;;;;4765747;29;20197;-85
2021/09/09 13:03:52;;;;;;;18.45;13.70;;;;;;;;;;4801706;29;20506;-85
2021/09/09 13:06:17;;;;;;;16.15;12.35;;;;;;;;;;4818313;29;20045;-83
2021/09/09 13:08:42;;;;;;;20.73;11.68;;;;;;;;;;4795436;29;20038;-85
2021/09/09 13:11:08;;;;;;;17.30;11.52;;;;;;;;;;4803184;29;20039;-85
2021/09/09 13:13:34;;;;;;;15.02;11.45;;;;;;;;;;4777503;29;20043;-85
2021/09/09 13:16:03;;;;;;;15.65;10.35;;;;;;;;;;4789061;29;20104;-84
2021/09/09 13:18:29;;;;;;;14.45;11.32;;;;;;;;;;4791212;29;20030;-83
2021/09/09 13:20:56;;;;;;;15.65;11.18;;;;;;;;;;4805549;29;20138;-84
2021/09/09 13:23:21;;;;;;;14.95;10.70;;;;;;;;;;4808756;29;20026;-83
2021/09/09 13:25:47;;;;;;;14.75;10.55;;;;;;;;;;4813716;29;20585;-84
2021/09/09 13:28:13;;;;;;;12.48;10.68;;;;;;;;;;4822590;29;20034;-85
2021/09/09 13:30:40;;;;;;;17.67;10.23;;;;;;;;;;4812449;29;20436;-84
2021/09/09 13:33:06;;;;;;;11.93;9.93;;;;;;;;;;4793024;29;20026;-83
2021/09/09 13:35:33;;;;;;;13.25;9.50;;;;;;;;;;4805849;29;20590;-84
2021/09/09 13:37:59;;;;;;;12.95;9.75;;;;;;;;;;4819996;29;20501;-83
2021/09/09 13:40:25;;;;;;;13.15;9.52;;;;;;;;;;4804477;29;20088;-85
2021/09/09 13:42:51;;;;;;;13.27;10.00;;;;;;;;;;4796477;29;20094;-85
2021/09/09 13:45:16;;;;;;;12.38;9.48;;;;;;;;;;4792698;29;20406;-84
2021/09/09 13:47:44;;;;;;;12.75;10.00;;;;;;;;;;4790830;29;20178;-84
2021/09/09 13:50:09;;;;;;;12.23;10.20;;;;;;;;;;4789665;29;20030;-85
2021/09/09 13:52:35;;;;;;;10.88;9.27;;;;;;;;;;4814723;29;20581;-85
2021/09/09 13:55:00;;;;;;;12.65;9.38;;;;;;;;;;4798585;29;20118;-85
2021/09/09 13:57:26;;;;;;;11.45;9.85;;;;;;;;;;4806745;29;20026;-85
2021/09/09 13:59:51;;;;;;;13.75;9.73;;;;;;;;;;4798736;29;20034;-84
2021/09/09 14:02:18;;;;;;;13.40;9.13;;;;;;;;;;4786439;29;20043;-84
2021/09/09 14:04:43;;;;;;;12.55;8.88;;;;;;;;;;4802409;29;20041;-84
2021/09/09 14:07:09;;;;;;;12.00;9.35;;;;;;;;;;4805999;29;20038;-84
2021/09/09 14:09:34;;;;;;;17.02;10.05;;;;;;;;;;4808338;29;20043;-84
2021/09/09 14:11:59;;;;;;;12.13;9.57;;;;;;;;;;4809302;29;20508;-84
2021/09/09 14:14:25;;;;;;;12.07;9.73;;;;;;;;;;4794269;29;20046;-83
2021/09/09 14:16:50;;;;;;;11.57;8.80;;;;;;;;;;4791983;29;21299;-84
2021/09/09 14:19:16;;;;;;;16.88;9.10;;;;;;;;;;4801548;29;20486;-84
2021/09/09 14:21:41;;;;;;;11.95;9.02;;;;;;;;;;4805955;29;20031;-84